sensor_id;sensor_type;location;lat;lon;timestamp;pressure;altitude;pressure_sealevel;temperature;humidity
50710;BME280;37033;49.994;21.992;2023-08-01T00:01:21;98688.20;;;14.85;75.45
50710;BME280;37033;49.994;21.992;2023-08-01T00:03:52;98685.70;;;14.82;75.57
50710;BME280;37033;49.994;21.992;2023-08-01T00:06:23;98687.14;;;14.78;75.62
50710;BME280;37033;49.994;21.992;2023-08-01T00:08:54;98690.45;;;14.76;75.72
50710;BME280;37033;49.994;21.992;2023-08-01T00:11:25;98689.05;;;14.73;75.76
50710;BME280;37033;49.994;21.992;2023-08-01T00:13:55;98692.02;;;14.71;75.93
50710;BME280;37033;49.994;21.992;2023-08-01T00:16:26;98691.28;;;14.68;76.10
50710;BME280;37033;49.994;21.992;2023-08-01T00:18:57;98687.78;;;14.67;76.05
50710;BME280;37033;49.994;21.992;2023-08-01T00:21:27;98690.39;;;14.64;76.15
50710;BME280;37033;49.994;21.992;2023-08-01T00:24:01;98688.38;;;14.61;76.46
50710;BME280;37033;49.994;21.992;2023-08-01T00:26:31;98685.67;;;14.58;76.57
50710;BME280;37033;49.994;21.992;2023-08-01T00:29:02;98688.79;;;14.56;76.66
50710;BME280;37033;49.994;21.992;2023-08-01T00:31:33;98687.04;;;14.54;76.85
50710;BME280;37033;49.994;21.992;2023-08-01T00:34:04;98679.94;;;14.52;76.93
50710;BME280;37033;49.994;21.992;2023-08-01T00:36:34;98680.55;;;14.50;77.04
50710;BME280;37033;49.994;21.992;2023-08-01T00:39:05;98678.33;;;14.49;77.05
50710;BME280;37033;49.994;21.992;2023-08-01T00:41:36;98673.86;;;14.47;77.29
50710;BME280;37033;49.994;21.992;2023-08-01T00:44:07;98670.91;;;14.45;77.45
50710;BME280;37033;49.994;21.992;2023-08-01T00:46:37;98673.16;;;14.44;77.39
50710;BME280;37033;49.994;21.992;2023-08-01T00:49:08;98674.81;;;14.41;77.42
50710;BME280;37033;49.994;21.992;2023-08-01T00:51:39;98673.17;;;14.40;77.48
50710;BME280;37033;49.994;21.992;2023-08-01T00:54:10;98677.36;;;14.38;77.59
50710;BME280;37033;49.994;21.992;2023-08-01T00:56:41;98673.55;;;14.36;77.82
50710;BME280;37033;49.994;21.992;2023-08-01T00:59:13;98674.77;;;14.33;77.69
50710;BME280;37033;49.994;21.992;2023-08-01T01:01:45;98667.08;;;14.30;77.91
50710;BME280;37033;49.994;21.992;2023-08-01T01:04:15;98664.20;;;14.27;77.94
50710;BME280;37033;49.994;21.992;2023-08-01T01:06:48;98662.46;;;14.25;77.97
50710;BME280;37033;49.994;21.992;2023-08-01T01:09:21;98661.29;;;14.22;78.25
50710;BME280;37033;49.994;21.992;2023-08-01T01:11:52;98658.08;;;14.19;78.27
50710;BME280;37033;49.994;21.992;2023-08-01T01:14:23;98659.41;;;14.17;78.40
50710;BME280;37033;49.994;21.992;2023-08-01T01:16:54;98656.63;;;14.14;78.55
50710;BME280;37033;49.994;21.992;2023-08-01T01:19:25;98650.13;;;14.13;78.66
50710;BME280;37033;49.994;21.992;2023-08-01T01:21:57;98651.54;;;14.13;78.84
50710;BME280;37033;49.994;21.992;2023-08-01T01:24:29;98650.30;;;14.13;78.91
50710;BME280;37033;49.994;21.992;2023-08-01T01:27:00;98649.41;;;14.13;79.18
50710;BME280;37033;49.994;21.992;2023-08-01T01:29:34;98648.21;;;14.14;79.26
50710;BME280;37033;49.994;21.992;2023-08-01T01:32:06;98640.67;;;14.14;79.38
50710;BME280;37033;49.994;21.992;2023-08-01T01:34:36;98637.93;;;14.14;79.31
50710;BME280;37033;49.994;21.992;2023-08-01T01:37:07;98635.98;;;14.13;79.59
50710;BME280;37033;49.994;21.992;2023-08-01T01:39:38;98637.38;;;14.14;79.80
50710;BME280;37033;49.994;21.992;2023-08-01T01:42:09;98637.29;;;14.12;79.60
50710;BME280;37033;49.994;21.992;2023-08-01T01:44:42;98634.17;;;14.12;79.74
50710;BME280;37033;49.994;21.992;2023-08-01T01:47:13;98630.64;;;14.12;79.74
50710;BME280;37033;49.994;21.992;2023-08-01T01:49:43;98629.36;;;14.12;79.90
50710;BME280;37033;49.994;21.992;2023-08-01T01:52:14;98624.89;;;14.10;79.93
50710;BME280;37033;49.994;21.992;2023-08-01T01:54:44;98621.29;;;14.09;80.39
50710;BME280;37033;49.994;21.992;2023-08-01T01:57:15;98614.58;;;14.08;80.31
50710;BME280;37033;49.994;21.992;2023-08-01T01:59:46;98610.05;;;14.06;80.40
50710;BME280;37033;49.994;21.992;2023-08-01T02:02:17;98608.04;;;14.05;80.53
50710;BME280;37033;49.994;21.992;2023-08-01T02:04:49;98602.48;;;14.02;80.72
50710;BME280;37033;49.994;21.992;2023-08-01T02:07:20;98596.26;;;14.00;80.59
50710;BME280;37033;49.994;21.992;2023-08-01T02:09:51;98594.80;;;13.97;80.76
50710;BME280;37033;49.994;21.992;2023-08-01T02:12:21;98595.59;;;13.94;80.80
50710;BME280;37033;49.994;21.992;2023-08-01T02:14:52;98591.94;;;13.93;80.83
50710;BME280;37033;49.994;21.992;2023-08-01T02:17:23;98592.23;;;13.92;81.11
50710;BME280;37033;49.994;21.992;2023-08-01T02:19:54;98591.52;;;13.91;81.12
50710;BME280;37033;49.994;21.992;2023-08-01T02:22:26;98591.41;;;13.91;81.10
50710;BME280;37033;49.994;21.992;2023-08-01T02:24:56;98591.89;;;13.91;81.31
50710;BME280;37033;49.994;21.992;2023-08-01T02:27:27;98589.00;;;13.91;81.39
50710;BME280;37033;49.994;21.992;2023-08-01T02:29:58;98585.98;;;13.92;81.43
50710;BME280;37033;49.994;21.992;2023-08-01T02:32:28;98582.98;;;13.92;81.65
50710;BME280;37033;49.994;21.992;2023-08-01T02:34:59;98585.66;;;13.93;81.58
50710;BME280;37033;49.994;21.992;2023-08-01T02:37:30;98575.44;;;13.93;81.71
50710;BME280;37033;49.994;21.992;2023-08-01T02:40:03;98574.67;;;13.92;81.88
50710;BME280;37033;49.994;21.992;2023-08-01T02:42:36;98573.81;;;13.91;82.17
50710;BME280;37033;49.994;21.992;2023-08-01T02:45:08;98571.26;;;13.91;82.41
50710;BME280;37033;49.994;21.992;2023-08-01T02:47:39;98566.60;;;13.91;82.39
50710;BME280;37033;49.994;21.992;2023-08-01T02:50:10;98560.95;;;13.92;82.68
50710;BME280;37033;49.994;21.992;2023-08-01T02:52:41;98569.97;;;13.95;82.90
50710;BME280;37033;49.994;21.992;2023-08-01T02:55:12;98569.80;;;13.96;83.21
50710;BME280;37033;49.994;21.992;2023-08-01T02:57:42;98564.75;;;13.97;83.07
50710;BME280;37033;49.994;21.992;2023-08-01T03:00:15;98560.48;;;13.99;83.13
50710;BME280;37033;49.994;21.992;2023-08-01T03:02:46;98558.73;;;14.00;83.21
50710;BME280;37033;49.994;21.992;2023-08-01T03:05:17;98550.73;;;14.01;83.29
50710;BME280;37033;49.994;21.992;2023-08-01T03:07:48;98548.11;;;14.01;83.22
50710;BME280;37033;49.994;21.992;2023-08-01T03:10:19;98542.14;;;14.02;83.16
50710;BME280;37033;49.994;21.992;2023-08-01T03:12:50;98538.77;;;14.02;83.26
50710;BME280;37033;49.994;21.992;2023-08-01T03:15:20;98540.17;;;14.02;83.17
50710;BME280;37033;49.994;21.992;2023-08-01T03:17:51;98534.06;;;14.02;83.33
50710;BME280;37033;49.994;21.992;2023-08-01T03:20:22;98537.27;;;14.03;83.30
50710;BME280;37033;49.994;21.992;2023-08-01T03:22:52;98534.80;;;14.05;83.30
50710;BME280;37033;49.994;21.992;2023-08-01T03:25:23;98528.96;;;14.05;83.27
50710;BME280;37033;49.994;21.992;2023-08-01T03:27:54;98524.37;;;14.05;83.28
50710;BME280;37033;49.994;21.992;2023-08-01T03:30:24;98524.30;;;14.06;83.26
50710;BME280;37033;49.994;21.992;2023-08-01T03:32:55;98524.27;;;14.06;83.26
50710;BME280;37033;49.994;21.992;2023-08-01T03:35:26;98525.64;;;14.05;83.45
50710;BME280;37033;49.994;21.992;2023-08-01T03:37:57;98521.13;;;14.06;83.51
50710;BME280;37033;49.994;21.992;2023-08-01T03:40:27;98516.59;;;14.07;83.77
50710;BME280;37033;49.994;21.992;2023-08-01T03:42:58;98520.08;;;14.09;83.97
50710;BME280;37033;49.994;21.992;2023-08-01T03:45:29;98516.61;;;14.11;84.08
50710;BME280;37033;49.994;21.992;2023-08-01T03:47:59;98519.74;;;14.14;84.28
50710;BME280;37033;49.994;21.992;2023-08-01T03:50:30;98521.58;;;14.19;84.42
50710;BME280;37033;49.994;21.992;2023-08-01T03:53:01;98520.27;;;14.25;84.46
50710;BME280;37033;49.994;21.992;2023-08-01T03:55:31;98520.91;;;14.32;84.77
50710;BME280;37033;49.994;21.992;2023-08-01T03:58:02;98522.64;;;14.41;84.67
50710;BME280;37033;49.994;21.992;2023-08-01T04:00:33;98519.48;;;14.50;85.04
50710;BME280;37033;49.994;21.992;2023-08-01T04:03:04;98517.71;;;14.60;85.52
50710;BME280;37033;49.994;21.992;2023-08-01T04:05:35;98519.64;;;14.69;85.35
50710;BME280;37033;49.994;21.992;2023-08-01T04:08:06;98516.50;;;14.77;85.21
50710;BME280;37033;49.994;21.992;2023-08-01T04:10:37;98510.73;;;14.84;85.16
50710;BME280;37033;49.994;21.992;2023-08-01T04:13:08;98505.04;;;14.89;84.89
50710;BME280;37033;49.994;21.992;2023-08-01T04:15:39;98504.39;;;14.92;84.96
50710;BME280;37033;49.994;21.992;2023-08-01T04:18:10;98502.13;;;14.95;84.74
50710;BME280;37033;49.994;21.992;2023-08-01T04:20:40;98498.47;;;14.98;84.75
50710;BME280;37033;49.994;21.992;2023-08-01T04:23:11;98497.41;;;15.00;84.68
50710;BME280;37033;49.994;21.992;2023-08-01T04:25:42;98495.09;;;15.03;84.81
50710;BME280;37033;49.994;21.992;2023-08-01T04:28:13;98493.88;;;15.07;85.05
50710;BME280;37033;49.994;21.992;2023-08-01T04:30:51;98488.36;;;15.14;84.97
50710;BME280;37033;49.994;21.992;2023-08-01T04:33:22;98487.45;;;15.22;85.06
50710;BME280;37033;49.994;21.992;2023-08-01T04:35:53;98482.74;;;15.30;85.03
50710;BME280;37033;49.994;21.992;2023-08-01T04:38:24;98481.52;;;15.38;85.11
50710;BME280;37033;49.994;21.992;2023-08-01T04:40:55;98477.48;;;15.46;85.20
50710;BME280;37033;49.994;21.992;2023-08-01T04:43:26;98471.95;;;15.54;85.26
50710;BME280;37033;49.994;21.992;2023-08-01T04:45:57;98470.44;;;15.62;85.11
50710;BME280;37033;49.994;21.992;2023-08-01T04:48:28;98468.20;;;15.70;85.23
50710;BME280;37033;49.994;21.992;2023-08-01T04:50:58;98471.98;;;15.79;85.10
50710;BME280;37033;49.994;21.992;2023-08-01T04:53:29;98471.55;;;15.88;85.07
50710;BME280;37033;49.994;21.992;2023-08-01T04:56:00;98470.75;;;16.00;85.08
50710;BME280;37033;49.994;21.992;2023-08-01T04:58:31;98468.64;;;16.12;84.82
50710;BME280;37033;49.994;21.992;2023-08-01T05:01:02;98465.62;;;16.24;84.48
50710;BME280;37033;49.994;21.992;2023-08-01T05:03:33;98459.58;;;16.37;84.31
50710;BME280;37033;49.994;21.992;2023-08-01T05:06:04;98461.16;;;16.52;84.35
50710;BME280;37033;49.994;21.992;2023-08-01T05:08:35;98461.59;;;16.67;84.23
50710;BME280;37033;49.994;21.992;2023-08-01T05:11:06;98449.58;;;16.82;84.13
50710;BME280;37033;49.994;21.992;2023-08-01T05:13:37;98452.52;;;16.98;84.04
50710;BME280;37033;49.994;21.992;2023-08-01T05:16:08;98452.57;;;17.12;83.77
50710;BME280;37033;49.994;21.992;2023-08-01T05:18:39;98451.69;;;17.28;83.46
50710;BME280;37033;49.994;21.992;2023-08-01T05:21:10;98445.27;;;17.43;83.30
50710;BME280;37033;49.994;21.992;2023-08-01T05:23:41;98442.36;;;17.56;82.99
50710;BME280;37033;49.994;21.992;2023-08-01T05:26:11;98437.73;;;17.71;82.82
50710;BME280;37033;49.994;21.992;2023-08-01T05:28:42;98437.31;;;17.87;82.60
50710;BME280;37033;49.994;21.992;2023-08-01T05:31:13;98438.44;;;18.04;82.43
50710;BME280;37033;49.994;21.992;2023-08-01T05:33:44;98440.38;;;18.20;81.95
50710;BME280;37033;49.994;21.992;2023-08-01T05:36:15;98442.64;;;18.39;81.88
50710;BME280;37033;49.994;21.992;2023-08-01T05:38:46;98439.30;;;18.57;81.53
50710;BME280;37033;49.994;21.992;2023-08-01T05:41:16;98439.46;;;18.75;81.25
50710;BME280;37033;49.994;21.992;2023-08-01T05:43:48;98438.33;;;18.95;81.11
50710;BME280;37033;49.994;21.992;2023-08-01T05:46:19;98439.66;;;19.16;81.18
50710;BME280;37033;49.994;21.992;2023-08-01T05:48:50;98440.21;;;19.38;80.73
50710;BME280;37033;49.994;21.992;2023-08-01T05:51:21;98437.69;;;19.57;80.05
50710;BME280;37033;49.994;21.992;2023-08-01T05:53:52;98440.00;;;19.73;79.66
50710;BME280;37033;49.994;21.992;2023-08-01T05:56:23;98433.73;;;19.91;79.41
50710;BME280;37033;49.994;21.992;2023-08-01T05:58:54;98432.37;;;20.09;78.94
50710;BME280;37033;49.994;21.992;2023-08-01T06:01:25;98428.66;;;20.27;78.06
50710;BME280;37033;49.994;21.992;2023-08-01T06:03:56;98422.89;;;20.43;77.34
50710;BME280;37033;49.994;21.992;2023-08-01T06:06:27;98423.92;;;20.54;76.92
50710;BME280;37033;49.994;21.992;2023-08-01T06:08:58;98424.76;;;20.70;77.00
50710;BME280;37033;49.994;21.992;2023-08-01T06:11:29;98420.46;;;20.89;76.76
50710;BME280;37033;49.994;21.992;2023-08-01T06:13:59;98420.03;;;21.05;76.35
50710;BME280;37033;49.994;21.992;2023-08-01T06:16:31;98416.25;;;21.20;75.68
50710;BME280;37033;49.994;21.992;2023-08-01T06:19:01;98416.68;;;21.38;75.33
50710;BME280;37033;49.994;21.992;2023-08-01T06:21:32;98421.06;;;21.55;74.51
50710;BME280;37033;49.994;21.992;2023-08-01T06:24:04;98423.38;;;21.70;74.03
50710;BME280;37033;49.994;21.992;2023-08-01T06:26:34;98422.02;;;21.81;72.78
50710;BME280;37033;49.994;21.992;2023-08-01T06:29:05;98426.60;;;21.96;73.04
50710;BME280;37033;49.994;21.992;2023-08-01T06:31:36;98420.70;;;22.13;72.25
50710;BME280;37033;49.994;21.992;2023-08-01T06:34:07;98417.90;;;22.27;71.74
50710;BME280;37033;49.994;21.992;2023-08-01T06:36:38;98416.45;;;22.38;70.24
50710;BME280;37033;49.994;21.992;2023-08-01T06:39:09;98410.79;;;22.48;70.53
50710;BME280;37033;49.994;21.992;2023-08-01T06:41:40;98409.36;;;22.62;69.88
50710;BME280;37033;49.994;21.992;2023-08-01T06:44:11;98409.11;;;22.74;69.17
50710;BME280;37033;49.994;21.992;2023-08-01T06:46:42;98405.34;;;22.79;68.26
50710;BME280;37033;49.994;21.992;2023-08-01T06:49:13;98407.09;;;22.81;68.19
50710;BME280;37033;49.994;21.992;2023-08-01T06:51:44;98404.45;;;22.87;68.18
50710;BME280;37033;49.994;21.992;2023-08-01T06:54:15;98402.46;;;22.87;67.77
50710;BME280;37033;49.994;21.992;2023-08-01T06:56:46;98391.64;;;22.90;68.05
50710;BME280;37033;49.994;21.992;2023-08-01T06:59:17;98390.84;;;23.00;67.83
50710;BME280;37033;49.994;21.992;2023-08-01T07:01:48;98393.51;;;23.05;67.32
50710;BME280;37033;49.994;21.992;2023-08-01T07:04:19;98393.48;;;23.11;67.38
50710;BME280;37033;49.994;21.992;2023-08-01T07:06:50;98395.04;;;23.23;66.90
50710;BME280;37033;49.994;21.992;2023-08-01T07:09:21;98393.58;;;23.32;66.83
50710;BME280;37033;49.994;21.992;2023-08-01T07:11:52;98392.56;;;23.47;67.01
50710;BME280;37033;49.994;21.992;2023-08-01T07:14:23;98387.80;;;23.60;66.42
50710;BME280;37033;49.994;21.992;2023-08-01T07:16:54;98387.77;;;23.73;65.86
50710;BME280;37033;49.994;21.992;2023-08-01T07:19:24;98383.35;;;23.81;65.16
50710;BME280;37033;49.994;21.992;2023-08-01T07:21:55;98377.81;;;23.93;65.15
50710;BME280;37033;49.994;21.992;2023-08-01T07:24:26;98371.29;;;24.08;64.69
50710;BME280;37033;49.994;21.992;2023-08-01T07:26:57;98366.91;;;24.23;64.40
50710;BME280;37033;49.994;21.992;2023-08-01T07:29:28;98358.42;;;24.32;63.52
50710;BME280;37033;49.994;21.992;2023-08-01T07:31:59;98352.98;;;24.33;63.29
50710;BME280;37033;49.994;21.992;2023-08-01T07:34:30;98344.63;;;24.39;63.74
50710;BME280;37033;49.994;21.992;2023-08-01T07:37:01;98342.70;;;24.50;63.56
50710;BME280;37033;49.994;21.992;2023-08-01T07:39:31;98343.37;;;24.61;63.20
50710;BME280;37033;49.994;21.992;2023-08-01T07:42:04;98339.37;;;24.63;62.72
50710;BME280;37033;49.994;21.992;2023-08-01T07:44:35;98334.45;;;24.63;62.80
50710;BME280;37033;49.994;21.992;2023-08-01T07:47:06;98336.45;;;24.64;62.63
50710;BME280;37033;49.994;21.992;2023-08-01T07:49:37;98334.52;;;24.63;62.70
50710;BME280;37033;49.994;21.992;2023-08-01T07:52:08;98337.77;;;24.59;62.26
50710;BME280;37033;49.994;21.992;2023-08-01T07:54:39;98337.55;;;24.53;62.15
50710;BME280;37033;49.994;21.992;2023-08-01T07:57:10;98340.55;;;24.59;62.17
50710;BME280;37033;49.994;21.992;2023-08-01T07:59:41;98334.04;;;24.69;62.32
50710;BME280;37033;49.994;21.992;2023-08-01T08:02:12;98332.35;;;24.86;62.02
50710;BME280;37033;49.994;21.992;2023-08-01T08:04:43;98330.98;;;24.99;61.67
50710;BME280;37033;49.994;21.992;2023-08-01T08:07:14;98330.17;;;25.06;60.86
50710;BME280;37033;49.994;21.992;2023-08-01T08:09:45;98324.09;;;25.08;60.27
50710;BME280;37033;49.994;21.992;2023-08-01T08:12:16;98325.23;;;25.17;60.15
50710;BME280;37033;49.994;21.992;2023-08-01T08:14:47;98324.30;;;25.29;59.96
50710;BME280;37033;49.994;21.992;2023-08-01T08:17:18;98321.45;;;25.39;59.56
50710;BME280;37033;49.994;21.992;2023-08-01T08:19:49;98322.73;;;25.45;58.32
50710;BME280;37033;49.994;21.992;2023-08-01T08:22:22;98322.16;;;25.47;58.55
50710;BME280;37033;49.994;21.992;2023-08-01T08:24:53;98318.35;;;25.56;58.65
50710;BME280;37033;49.994;21.992;2023-08-01T08:27:26;98318.33;;;25.63;57.84
50710;BME280;37033;49.994;21.992;2023-08-01T08:29:58;98325.66;;;25.67;57.59
50710;BME280;37033;49.994;21.992;2023-08-01T08:32:31;98331.00;;;25.73;57.04
50710;BME280;37033;49.994;21.992;2023-08-01T08:35:02;98331.23;;;25.81;56.70
50710;BME280;37033;49.994;21.992;2023-08-01T08:37:33;98329.99;;;25.90;56.49
50710;BME280;37033;49.994;21.992;2023-08-01T08:40:04;98327.61;;;25.91;56.09
50710;BME280;37033;49.994;21.992;2023-08-01T08:42:35;98325.81;;;25.96;55.67
50710;BME280;37033;49.994;21.992;2023-08-01T08:45:07;98323.08;;;26.08;54.46
50710;BME280;37033;49.994;21.992;2023-08-01T08:47:42;98319.03;;;26.08;53.38
50710;BME280;37033;49.994;21.992;2023-08-01T08:50:15;98321.56;;;26.03;53.14
50710;BME280;37033;49.994;21.992;2023-08-01T08:52:50;98319.93;;;25.93;50.83
50710;BME280;37033;49.994;21.992;2023-08-01T08:55:22;98316.10;;;25.84;50.65
50710;BME280;37033;49.994;21.992;2023-08-01T08:57:53;98314.70;;;25.90;50.63
50710;BME280;37033;49.994;21.992;2023-08-01T09:00:24;98310.45;;;26.05;50.71
50710;BME280;37033;49.994;21.992;2023-08-01T09:02:57;98309.02;;;26.29;50.81
50710;BME280;37033;49.994;21.992;2023-08-01T09:05:30;98314.11;;;26.48;50.41
50710;BME280;37033;49.994;21.992;2023-08-01T09:08:07;98315.55;;;26.49;49.32
50710;BME280;37033;49.994;21.992;2023-08-01T09:10:42;98319.92;;;26.44;49.43
50710;BME280;37033;49.994;21.992;2023-08-01T09:13:14;98319.02;;;26.42;49.04
50710;BME280;37033;49.994;21.992;2023-08-01T09:15:45;98313.27;;;26.36;49.23
50710;BME280;37033;49.994;21.992;2023-08-01T09:18:17;98305.56;;;26.41;49.49
50710;BME280;37033;49.994;21.992;2023-08-01T09:20:49;98309.80;;;26.48;49.80
50710;BME280;37033;49.994;21.992;2023-08-01T09:23:20;98309.98;;;26.58;49.80
50710;BME280;37033;49.994;21.992;2023-08-01T09:25:51;98309.08;;;26.66;49.87
50710;BME280;37033;49.994;21.992;2023-08-01T09:28:23;98308.80;;;26.74;49.58
50710;BME280;37033;49.994;21.992;2023-08-01T09:30:54;98303.77;;;26.73;48.52
50710;BME280;37033;49.994;21.992;2023-08-01T09:33:36;98301.64;;;26.64;48.83
50710;BME280;37033;49.994;21.992;2023-08-01T09:36:08;98296.89;;;26.56;48.77
50710;BME280;37033;49.994;21.992;2023-08-01T09:38:39;98295.44;;;26.60;49.13
50710;BME280;37033;49.994;21.992;2023-08-01T09:41:18;98288.02;;;26.64;48.71
50710;BME280;37033;49.994;21.992;2023-08-01T09:43:49;98291.84;;;26.65;49.08
50710;BME280;37033;49.994;21.992;2023-08-01T09:46:20;98287.06;;;26.63;49.06
50710;BME280;37033;49.994;21.992;2023-08-01T09:48:54;98290.80;;;26.64;49.43
50710;BME280;37033;49.994;21.992;2023-08-01T09:51:25;98280.56;;;26.60;49.01
50710;BME280;37033;49.994;21.992;2023-08-01T09:53:57;98282.06;;;26.59;49.30
50710;BME280;37033;49.994;21.992;2023-08-01T09:56:28;98279.92;;;26.60;48.81
50710;BME280;37033;49.994;21.992;2023-08-01T09:59:01;98279.62;;;26.57;48.98
50710;BME280;37033;49.994;21.992;2023-08-01T10:01:33;98273.77;;;26.54;48.37
50710;BME280;37033;49.994;21.992;2023-08-01T10:04:04;98272.63;;;26.49;48.15
50710;BME280;37033;49.994;21.992;2023-08-01T10:06:39;98272.97;;;26.49;48.40
50710;BME280;37033;49.994;21.992;2023-08-01T10:09:18;98266.73;;;26.53;48.68
50710;BME280;37033;49.994;21.992;2023-08-01T10:11:50;98267.82;;;26.51;48.85
50710;BME280;37033;49.994;21.992;2023-08-01T10:14:22;98269.34;;;26.47;48.92
50710;BME280;37033;49.994;21.992;2023-08-01T10:16:54;98272.23;;;26.42;49.17
50710;BME280;37033;49.994;21.992;2023-08-01T10:19:27;98273.94;;;26.39;49.65
50710;BME280;37033;49.994;21.992;2023-08-01T10:21:58;98275.58;;;26.37;49.60
50710;BME280;37033;49.994;21.992;2023-08-01T10:24:31;98275.70;;;26.35;49.65
50710;BME280;37033;49.994;21.992;2023-08-01T10:27:13;98278.80;;;26.35;49.97
50710;BME280;37033;49.994;21.992;2023-08-01T10:29:44;98279.89;;;26.34;50.13
50710;BME280;37033;49.994;21.992;2023-08-01T10:32:16;98280.13;;;26.33;49.98
50710;BME280;37033;49.994;21.992;2023-08-01T10:34:53;98281.36;;;26.31;49.80
50710;BME280;37033;49.994;21.992;2023-08-01T10:37:24;98276.00;;;26.24;49.56
50710;BME280;37033;49.994;21.992;2023-08-01T10:40:01;98270.73;;;26.18;49.87
50710;BME280;37033;49.994;21.992;2023-08-01T10:42:40;98269.69;;;26.08;50.20
50710;BME280;37033;49.994;21.992;2023-08-01T10:45:23;98265.48;;;26.07;50.97
50710;BME280;37033;49.994;21.992;2023-08-01T10:47:54;98256.66;;;26.05;51.42
50710;BME280;37033;49.994;21.992;2023-08-01T10:50:25;98253.46;;;26.04;51.87
50710;BME280;37033;49.994;21.992;2023-08-01T10:53:04;98253.60;;;26.03;51.96
50710;BME280;37033;49.994;21.992;2023-08-01T10:55:43;98260.38;;;26.03;51.76
50710;BME280;37033;49.994;21.992;2023-08-01T10:58:14;98259.42;;;26.04;51.71
50710;BME280;37033;49.994;21.992;2023-08-01T11:00:45;98256.47;;;26.03;51.34
50710;BME280;37033;49.994;21.992;2023-08-01T11:03:16;98253.19;;;26.01;51.36
50710;BME280;37033;49.994;21.992;2023-08-01T11:06:00;98250.04;;;26.03;51.73
50710;BME280;37033;49.994;21.992;2023-08-01T11:08:37;98247.75;;;26.09;51.84
50710;BME280;37033;49.994;21.992;2023-08-01T11:11:11;98240.70;;;26.12;51.77
50710;BME280;37033;49.994;21.992;2023-08-01T11:13:42;98243.37;;;26.14;51.84
50710;BME280;37033;49.994;21.992;2023-08-01T11:16:20;98238.02;;;26.24;52.26
50710;BME280;37033;49.994;21.992;2023-08-01T11:18:51;98233.45;;;26.31;51.51
50710;BME280;37033;49.994;21.992;2023-08-01T11:21:28;98234.59;;;26.28;51.13
50710;BME280;37033;49.994;21.992;2023-08-01T11:23:59;98230.00;;;26.29;51.51
50710;BME280;37033;49.994;21.992;2023-08-01T11:26:30;98224.35;;;26.40;51.66
50710;BME280;37033;49.994;21.992;2023-08-01T11:29:03;98229.08;;;26.53;51.87
50710;BME280;37033;49.994;21.992;2023-08-01T11:31:35;98223.33;;;26.68;51.40
50710;BME280;37033;49.994;21.992;2023-08-01T11:34:06;98222.98;;;26.73;50.80
50710;BME280;37033;49.994;21.992;2023-08-01T11:36:38;98218.80;;;26.74;50.54
50710;BME280;37033;49.994;21.992;2023-08-01T11:39:09;98217.36;;;26.68;49.97
50710;BME280;37033;49.994;21.992;2023-08-01T11:41:40;98213.95;;;26.63;50.54
50710;BME280;37033;49.994;21.992;2023-08-01T11:44:11;98211.27;;;26.65;50.62
50710;BME280;37033;49.994;21.992;2023-08-01T11:46:42;98203.42;;;26.63;50.04
50710;BME280;37033;49.994;21.992;2023-08-01T11:49:15;98202.59;;;26.59;50.26
50710;BME280;37033;49.994;21.992;2023-08-01T11:51:47;98201.60;;;26.63;50.80
50710;BME280;37033;49.994;21.992;2023-08-01T11:54:19;98191.74;;;26.71;50.62
50710;BME280;37033;49.994;21.992;2023-08-01T11:57:01;98194.30;;;26.77;49.87
50710;BME280;37033;49.994;21.992;2023-08-01T11:59:32;98186.69;;;26.80;48.89
50710;BME280;37033;49.994;21.992;2023-08-01T12:02:03;98184.30;;;26.81;48.86
50710;BME280;37033;49.994;21.992;2023-08-01T12:04:34;98183.86;;;26.84;48.54
50710;BME280;37033;49.994;21.992;2023-08-01T12:07:13;98176.70;;;26.84;48.14
50710;BME280;37033;49.994;21.992;2023-08-01T12:09:44;98171.77;;;26.85;48.73
50710;BME280;37033;49.994;21.992;2023-08-01T12:12:16;98167.09;;;26.94;48.56
50710;BME280;37033;49.994;21.992;2023-08-01T12:14:46;98162.16;;;26.88;48.17
50710;BME280;37033;49.994;21.992;2023-08-01T12:17:18;98157.40;;;26.81;47.78
50710;BME280;37033;49.994;21.992;2023-08-01T12:19:49;98154.19;;;26.74;48.34
50710;BME280;37033;49.994;21.992;2023-08-01T12:22:20;98154.91;;;26.74;48.21
50710;BME280;37033;49.994;21.992;2023-08-01T12:24:50;98153.13;;;26.72;48.41
50710;BME280;37033;49.994;21.992;2023-08-01T12:27:21;98155.66;;;26.70;48.63
50710;BME280;37033;49.994;21.992;2023-08-01T12:29:52;98151.05;;;26.70;48.70
50710;BME280;37033;49.994;21.992;2023-08-01T12:32:23;98149.36;;;26.69;48.66
50710;BME280;37033;49.994;21.992;2023-08-01T12:34:54;98147.20;;;26.63;48.85
50710;BME280;37033;49.994;21.992;2023-08-01T12:37:25;98144.03;;;26.58;49.08
50710;BME280;37033;49.994;21.992;2023-08-01T12:39:56;98142.30;;;26.55;49.35
50710;BME280;37033;49.994;21.992;2023-08-01T12:42:26;98139.77;;;26.56;49.67
50710;BME280;37033;49.994;21.992;2023-08-01T12:44:57;98136.84;;;26.62;49.70
50710;BME280;37033;49.994;21.992;2023-08-01T12:47:28;98138.53;;;26.62;49.60
50710;BME280;37033;49.994;21.992;2023-08-01T12:49:59;98135.36;;;26.63;49.66
50710;BME280;37033;49.994;21.992;2023-08-01T12:52:30;98133.38;;;26.66;49.90
50710;BME280;37033;49.994;21.992;2023-08-01T12:55:05;98134.08;;;26.70;49.77
50710;BME280;37033;49.994;21.992;2023-08-01T12:57:36;98137.13;;;26.72;49.78
50710;BME280;37033;49.994;21.992;2023-08-01T13:00:09;98135.66;;;26.75;50.13
50710;BME280;37033;49.994;21.992;2023-08-01T13:02:40;98138.03;;;26.88;50.43
50710;BME280;37033;49.994;21.992;2023-08-01T13:05:12;98128.44;;;26.99;50.45
50710;BME280;37033;49.994;21.992;2023-08-01T13:07:42;98126.55;;;27.08;50.35
50710;BME280;37033;49.994;21.992;2023-08-01T13:10:14;98125.08;;;27.15;50.36
50710;BME280;37033;49.994;21.992;2023-08-01T13:12:45;98128.48;;;27.25;50.37